sensor_id;sensor_type;location;lat;lon;timestamp;temperature;humidity
62862;DHT22;48953;53.110;5.592;2022-07-23T00:01:15;12.40;83.70
62862;DHT22;48953;53.110;5.592;2022-07-23T00:03:41;12.50;73.30
62862;DHT22;48953;53.110;5.592;2022-07-23T00:06:07;12.50;72.20
62862;DHT22;48953;53.110;5.592;2022-07-23T00:08:32;12.70;68.80
62862;DHT22;48953;53.110;5.592;2022-07-23T00:10:58;12.70;53.20
62862;DHT22;48953;53.110;5.592;2022-07-23T00:13:23;12.60;40.80
62862;DHT22;48953;53.110;5.592;2022-07-23T00:15:49;12.60;41.20
62862;DHT22;48953;53.110;5.592;2022-07-23T00:18:15;12.40;36.90
62862;DHT22;48953;53.110;5.592;2022-07-23T00:20:41;12.30;45.90
62862;DHT22;48953;53.110;5.592;2022-07-23T00:23:07;12.20;52.20
62862;DHT22;48953;53.110;5.592;2022-07-23T00:25:37;12.00;58.80
62862;DHT22;48953;53.110;5.592;2022-07-23T00:28:03;12.00;69.80
62862;DHT22;48953;53.110;5.592;2022-07-23T00:30:30;11.90;68.50
62862;DHT22;48953;53.110;5.592;2022-07-23T00:33:00;11.80;70.40
62862;DHT22;48953;53.110;5.592;2022-07-23T00:35:28;11.70;71.00
62862;DHT22;48953;53.110;5.592;2022-07-23T00:37:55;11.70;72.10
62862;DHT22;48953;53.110;5.592;2022-07-23T00:40:21;11.80;75.30
62862;DHT22;48953;53.110;5.592;2022-07-23T00:42:46;11.90;75.00
62862;DHT22;48953;53.110;5.592;2022-07-23T00:45:12;12.10;75.80
62862;DHT22;48953;53.110;5.592;2022-07-23T00:47:38;11.90;60.20
62862;DHT22;48953;53.110;5.592;2022-07-23T00:50:05;11.90;64.20
62862;DHT22;48953;53.110;5.592;2022-07-23T00:52:31;11.80;65.90
62862;DHT22;48953;53.110;5.592;2022-07-23T00:54:57;11.70;59.00
62862;DHT22;48953;53.110;5.592;2022-07-23T00:57:23;11.60;69.10
62862;DHT22;48953;53.110;5.592;2022-07-23T00:59:49;11.50;70.60
62862;DHT22;48953;53.110;5.592;2022-07-23T01:02:14;11.30;55.70
62862;DHT22;48953;53.110;5.592;2022-07-23T01:04:40;11.20;52.50
62862;DHT22;48953;53.110;5.592;2022-07-23T01:07:05;11.10;66.10
62862;DHT22;48953;53.110;5.592;2022-07-23T01:09:31;11.10;76.40
62862;DHT22;48953;53.110;5.592;2022-07-23T01:11:57;11.10;80.00
62862;DHT22;48953;53.110;5.592;2022-07-23T01:14:23;11.00;87.90
62862;DHT22;48953;53.110;5.592;2022-07-23T01:16:49;11.00;89.70
62862;DHT22;48953;53.110;5.592;2022-07-23T01:19:16;10.80;90.10
62862;DHT22;48953;53.110;5.592;2022-07-23T01:21:51;10.70;88.10
62862;DHT22;48953;53.110;5.592;2022-07-23T01:24:18;10.80;92.80
62862;DHT22;48953;53.110;5.592;2022-07-23T01:26:48;10.70;94.30
62862;DHT22;48953;53.110;5.592;2022-07-23T01:29:15;10.70;96.20
62862;DHT22;48953;53.110;5.592;2022-07-23T01:31:40;10.60;96.90
62862;DHT22;48953;53.110;5.592;2022-07-23T01:34:06;10.70;99.20
62862;DHT22;48953;53.110;5.592;2022-07-23T01:36:33;10.50;99.70
62862;DHT22;48953;53.110;5.592;2022-07-23T01:38:59;10.40;98.10
62862;DHT22;48953;53.110;5.592;2022-07-23T01:41:24;10.50;99.90
62862;DHT22;48953;53.110;5.592;2022-07-23T01:43:50;10.40;99.90
62862;DHT22;48953;53.110;5.592;2022-07-23T01:46:16;10.30;99.90
62862;DHT22;48953;53.110;5.592;2022-07-23T01:48:42;10.30;99.90
62862;DHT22;48953;53.110;5.592;2022-07-23T01:51:07;10.30;99.90
62862;DHT22;48953;53.110;5.592;2022-07-23T01:53:33;10.30;99.90
62862;DHT22;48953;53.110;5.592;2022-07-23T01:56:00;10.30;99.90
62862;DHT22;48953;53.110;5.592;2022-07-23T01:58:27;10.20;99.90
62862;DHT22;48953;53.110;5.592;2022-07-23T02:00:53;10.20;99.90
62862;DHT22;48953;53.110;5.592;2022-07-23T02:03:19;10.20;99.90
62862;DHT22;48953;53.110;5.592;2022-07-23T02:05:45;10.20;99.90
62862;DHT22;48953;53.110;5.592;2022-07-23T02:08:11;10.20;99.90
62862;DHT22;48953;53.110;5.592;2022-07-23T02:10:36;10.10;99.90
62862;DHT22;48953;53.110;5.592;2022-07-23T02:13:02;10.10;99.90
62862;DHT22;48953;53.110;5.592;2022-07-23T02:15:28;10.10;99.90
62862;DHT22;48953;53.110;5.592;2022-07-23T02:17:54;10.00;99.90
62862;DHT22;48953;53.110;5.592;2022-07-23T02:20:20;10.00;99.90
62862;DHT22;48953;53.110;5.592;2022-07-23T02:22:45;9.90;99.90
62862;DHT22;48953;53.110;5.592;2022-07-23T02:25:11;9.90;99.90
62862;DHT22;48953;53.110;5.592;2022-07-23T02:27:37;10.00;99.90
62862;DHT22;48953;53.110;5.592;2022-07-23T02:30:03;10.00;99.90
62862;DHT22;48953;53.110;5.592;2022-07-23T02:32:29;9.90;99.90
62862;DHT22;48953;53.110;5.592;2022-07-23T02:34:54;9.90;99.90
62862;DHT22;48953;53.110;5.592;2022-07-23T02:37:20;9.80;99.90
62862;DHT22;48953;53.110;5.592;2022-07-23T02:39:45;9.90;99.90
62862;DHT22;48953;53.110;5.592;2022-07-23T02:42:13;9.90;99.90
62862;DHT22;48953;53.110;5.592;2022-07-23T02:44:39;9.90;99.90
62862;DHT22;48953;53.110;5.592;2022-07-23T02:47:05;9.90;99.90
62862;DHT22;48953;53.110;5.592;2022-07-23T02:49:31;9.90;99.90
62862;DHT22;48953;53.110;5.592;2022-07-23T02:51:56;10.00;99.90
62862;DHT22;48953;53.110;5.592;2022-07-23T02:54:22;10.10;99.90
62862;DHT22;48953;53.110;5.592;2022-07-23T02:56:47;10.10;99.90
62862;DHT22;48953;53.110;5.592;2022-07-23T02:59:13;10.20;99.90
62862;DHT22;48953;53.110;5.592;2022-07-23T03:01:38;10.30;99.90
62862;DHT22;48953;53.110;5.592;2022-07-23T03:04:04;10.60;99.90
62862;DHT22;48953;53.110;5.592;2022-07-23T03:06:30;10.90;99.90
62862;DHT22;48953;53.110;5.592;2022-07-23T03:08:55;11.00;99.90
62862;DHT22;48953;53.110;5.592;2022-07-23T03:11:21;10.90;99.90
62862;DHT22;48953;53.110;5.592;2022-07-23T03:13:47;11.00;99.90
62862;DHT22;48953;53.110;5.592;2022-07-23T03:16:12;11.10;99.90
62862;DHT22;48953;53.110;5.592;2022-07-23T03:18:38;11.30;99.90
62862;DHT22;48953;53.110;5.592;2022-07-23T03:21:03;11.30;99.90
62862;DHT22;48953;53.110;5.592;2022-07-23T03:23:29;11.20;99.90
62862;DHT22;48953;53.110;5.592;2022-07-23T03:25:54;11.20;99.90
62862;DHT22;48953;53.110;5.592;2022-07-23T03:28:20;11.20;99.90
62862;DHT22;48953;53.110;5.592;2022-07-23T03:30:46;11.10;99.90
62862;DHT22;48953;53.110;5.592;2022-07-23T03:33:13;11.10;99.90
62862;DHT22;48953;53.110;5.592;2022-07-23T03:35:38;11.00;99.90
62862;DHT22;48953;53.110;5.592;2022-07-23T03:38:04;11.00;99.90
62862;DHT22;48953;53.110;5.592;2022-07-23T03:40:30;11.00;99.90
62862;DHT22;48953;53.110;5.592;2022-07-23T03:42:55;10.90;99.90
62862;DHT22;48953;53.110;5.592;2022-07-23T03:45:21;10.90;99.90
62862;DHT22;48953;53.110;5.592;2022-07-23T03:47:46;10.90;99.90
62862;DHT22;48953;53.110;5.592;2022-07-23T03:50:12;10.80;99.90
62862;DHT22;48953;53.110;5.592;2022-07-23T03:52:37;10.80;99.90
62862;DHT22;48953;53.110;5.592;2022-07-23T03:55:04;10.80;99.90
62862;DHT22;48953;53.110;5.592;2022-07-23T03:57:29;10.80;99.90
62862;DHT22;48953;53.110;5.592;2022-07-23T03:59:55;10.70;99.90
62862;DHT22;48953;53.110;5.592;2022-07-23T04:02:21;10.80;99.90
62862;DHT22;48953;53.110;5.592;2022-07-23T04:04:46;10.80;99.90
62862;DHT22;48953;53.110;5.592;2022-07-23T04:07:12;10.80;99.90
62862;DHT22;48953;53.110;5.592;2022-07-23T04:09:39;10.90;99.90
62862;DHT22;48953;53.110;5.592;2022-07-23T04:12:06;10.90;99.90
62862;DHT22;48953;53.110;5.592;2022-07-23T04:14:32;10.90;99.90
62862;DHT22;48953;53.110;5.592;2022-07-23T04:16:57;11.30;99.90
62862;DHT22;48953;53.110;5.592;2022-07-23T04:19:23;12.60;99.90
62862;DHT22;48953;53.110;5.592;2022-07-23T04:21:49;13.50;99.90
62862;DHT22;48953;53.110;5.592;2022-07-23T04:24:14;14.40;54.20
62862;DHT22;48953;53.110;5.592;2022-07-23T04:26:40;13.90;1.00
62862;DHT22;48953;53.110;5.592;2022-07-23T04:29:05;13.30;2.60
62862;DHT22;48953;53.110;5.592;2022-07-23T04:31:31;13.00;10.20
62862;DHT22;48953;53.110;5.592;2022-07-23T04:33:56;12.80;25.50
62862;DHT22;48953;53.110;5.592;2022-07-23T04:36:22;12.70;32.30
62862;DHT22;48953;53.110;5.592;2022-07-23T04:38:48;12.60;21.70
62862;DHT22;48953;53.110;5.592;2022-07-23T04:41:13;12.60;8.10
62862;DHT22;48953;53.110;5.592;2022-07-23T04:43:39;13.10;15.90
62862;DHT22;48953;53.110;5.592;2022-07-23T04:46:04;15.50;1.00
62862;DHT22;48953;53.110;5.592;2022-07-23T04:48:31;17.60;1.00
62862;DHT22;48953;53.110;5.592;2022-07-23T04:50:56;19.30;99.90
62862;DHT22;48953;53.110;5.592;2022-07-23T04:53:22;20.80;99.90
62862;DHT22;48953;53.110;5.592;2022-07-23T04:55:47;22.10;99.90
62862;DHT22;48953;53.110;5.592;2022-07-23T04:58:13;21.10;99.90
62862;DHT22;48953;53.110;5.592;2022-07-23T05:00:39;18.90;99.90
62862;DHT22;48953;53.110;5.592;2022-07-23T05:03:05;17.80;99.90
62862;DHT22;48953;53.110;5.592;2022-07-23T05:05:31;18.40;99.90
62862;DHT22;48953;53.110;5.592;2022-07-23T05:07:56;21.70;99.90
62862;DHT22;48953;53.110;5.592;2022-07-23T05:10:22;24.40;99.90
62862;DHT22;48953;53.110;5.592;2022-07-23T05:12:48;26.00;99.90
62862;DHT22;48953;53.110;5.592;2022-07-23T05:15:13;27.10;99.90
62862;DHT22;48953;53.110;5.592;2022-07-23T05:17:39;27.20;99.90
62862;DHT22;48953;53.110;5.592;2022-07-23T05:20:05;25.80;99.90
62862;DHT22;48953;53.110;5.592;2022-07-23T05:22:30;26.70;99.90
62862;DHT22;48953;53.110;5.592;2022-07-23T05:24:56;28.80;99.90
62862;DHT22;48953;53.110;5.592;2022-07-23T05:27:21;28.70;99.90
62862;DHT22;48953;53.110;5.592;2022-07-23T05:29:47;29.80;99.90
62862;DHT22;48953;53.110;5.592;2022-07-23T05:32:12;30.60;99.90
62862;DHT22;48953;53.110;5.592;2022-07-23T05:34:38;30.80;99.90
62862;DHT22;48953;53.110;5.592;2022-07-23T05:37:03;31.50;99.90
62862;DHT22;48953;53.110;5.592;2022-07-23T05:39:29;32.30;99.90
62862;DHT22;48953;53.110;5.592;2022-07-23T05:41:54;32.90;99.90
62862;DHT22;48953;53.110;5.592;2022-07-23T05:44:20;34.20;99.90
62862;DHT22;48953;53.110;5.592;2022-07-23T05:46:46;34.80;99.90
62862;DHT22;48953;53.110;5.592;2022-07-23T05:49:11;35.40;99.90
62862;DHT22;48953;53.110;5.592;2022-07-23T05:51:37;35.70;99.90
62862;DHT22;48953;53.110;5.592;2022-07-23T05:54:02;34.50;99.90
62862;DHT22;48953;53.110;5.592;2022-07-23T05:56:28;33.50;99.90
62862;DHT22;48953;53.110;5.592;2022-07-23T05:58:54;35.30;99.90
62862;DHT22;48953;53.110;5.592;2022-07-23T06:01:19;36.00;99.90
62862;DHT22;48953;53.110;5.592;2022-07-23T06:03:45;35.70;99.90
62862;DHT22;48953;53.110;5.592;2022-07-23T06:06:10;36.20;99.90
62862;DHT22;48953;53.110;5.592;2022-07-23T06:08:36;36.20;99.90
62862;DHT22;48953;53.110;5.592;2022-07-23T06:11:01;36.80;99.90
62862;DHT22;48953;53.110;5.592;2022-07-23T06:13:27;37.60;99.90
62862;DHT22;48953;53.110;5.592;2022-07-23T06:15:53;37.00;99.90
62862;DHT22;48953;53.110;5.592;2022-07-23T06:18:18;37.20;99.90
62862;DHT22;48953;53.110;5.592;2022-07-23T06:20:44;37.30;99.90
62862;DHT22;48953;53.110;5.592;2022-07-23T06:23:09;38.20;99.90
62862;DHT22;48953;53.110;5.592;2022-07-23T06:25:35;38.40;99.90
62862;DHT22;48953;53.110;5.592;2022-07-23T06:28:01;39.50;99.90
62862;DHT22;48953;53.110;5.592;2022-07-23T06:30:26;35.50;99.90
62862;DHT22;48953;53.110;5.592;2022-07-23T06:32:52;33.10;99.90
62862;DHT22;48953;53.110;5.592;2022-07-23T06:35:17;30.80;99.90
62862;DHT22;48953;53.110;5.592;2022-07-23T06:37:43;29.20;99.90
62862;DHT22;48953;53.110;5.592;2022-07-23T06:40:09;28.00;99.90
62862;DHT22;48953;53.110;5.592;2022-07-23T06:42:35;27.20;99.90
62862;DHT22;48953;53.110;5.592;2022-07-23T06:45:03;26.90;99.90
62862;DHT22;48953;53.110;5.592;2022-07-23T06:47:29;26.60;99.90
62862;DHT22;48953;53.110;5.592;2022-07-23T06:49:54;26.60;99.90
62862;DHT22;48953;53.110;5.592;2022-07-23T06:52:20;27.60;99.90
62862;DHT22;48953;53.110;5.592;2022-07-23T06:54:45;29.80;99.90
62862;DHT22;48953;53.110;5.592;2022-07-23T06:57:11;30.30;99.90
62862;DHT22;48953;53.110;5.592;2022-07-23T06:59:37;30.40;99.90
62862;DHT22;48953;53.110;5.592;2022-07-23T07:02:06;31.70;99.90
62862;DHT22;48953;53.110;5.592;2022-07-23T07:04:31;32.00;99.90
62862;DHT22;48953;53.110;5.592;2022-07-23T07:06:57;30.20;99.90
62862;DHT22;48953;53.110;5.592;2022-07-23T07:09:23;29.00;99.90
62862;DHT22;48953;53.110;5.592;2022-07-23T07:11:48;28.00;99.90
62862;DHT22;48953;53.110;5.592;2022-07-23T07:14:14;27.20;99.90
62862;DHT22;48953;53.110;5.592;2022-07-23T07:16:39;26.80;99.90
62862;DHT22;48953;53.110;5.592;2022-07-23T07:19:05;25.90;99.90
62862;DHT22;48953;53.110;5.592;2022-07-23T07:21:31;25.20;99.90
62862;DHT22;48953;53.110;5.592;2022-07-23T07:23:56;24.90;99.90
62862;DHT22;48953;53.110;5.592;2022-07-23T07:26:22;24.60;99.90
62862;DHT22;48953;53.110;5.592;2022-07-23T07:28:47;24.40;99.90
62862;DHT22;48953;53.110;5.592;2022-07-23T07:31:13;24.00;99.90
62862;DHT22;48953;53.110;5.592;2022-07-23T07:33:38;23.80;99.90
62862;DHT22;48953;53.110;5.592;2022-07-23T07:36:05;23.50;99.90
62862;DHT22;48953;53.110;5.592;2022-07-23T07:38:30;23.10;99.90
62862;DHT22;48953;53.110;5.592;2022-07-23T07:40:56;23.00;99.90
62862;DHT22;48953;53.110;5.592;2022-07-23T07:43:22;22.70;99.90
62862;DHT22;48953;53.110;5.592;2022-07-23T07:45:47;22.50;99.90
62862;DHT22;48953;53.110;5.592;2022-07-23T07:48:13;22.60;99.90
62862;DHT22;48953;53.110;5.592;2022-07-23T07:50:38;22.70;99.90
62862;DHT22;48953;53.110;5.592;2022-07-23T07:53:04;22.80;99.90
62862;DHT22;48953;53.110;5.592;2022-07-23T07:55:30;22.60;99.90
62862;DHT22;48953;53.110;5.592;2022-07-23T07:57:56;22.80;99.90
62862;DHT22;48953;53.110;5.592;2022-07-23T08:00:22;22.60;99.90
62862;DHT22;48953;53.110;5.592;2022-07-23T08:02:50;22.90;99.90
62862;DHT22;48953;53.110;5.592;2022-07-23T08:05:26;23.00;99.90
62862;DHT22;48953;53.110;5.592;2022-07-23T08:07:52;22.90;99.90
62862;DHT22;48953;53.110;5.592;2022-07-23T08:10:18;22.80;99.90
62862;DHT22;48953;53.110;5.592;2022-07-23T08:12:53;22.50;99.90
62862;DHT22;48953;53.110;5.592;2022-07-23T08:15:20;22.60;99.90
62862;DHT22;48953;53.110;5.592;2022-07-23T08:17:47;22.60;99.90
62862;DHT22;48953;53.110;5.592;2022-07-23T08:20:16;22.70;99.90
62862;DHT22;48953;53.110;5.592;2022-07-23T08:25:45;22.50;99.90
62862;DHT22;48953;53.110;5.592;2022-07-23T08:28:12;22.50;99.90
62862;DHT22;48953;53.110;5.592;2022-07-23T08:30:39;22.70;99.90
62862;DHT22;48953;53.110;5.592;2022-07-23T08:33:10;22.80;99.90
62862;DHT22;48953;53.110;5.592;2022-07-23T08:35:42;22.70;99.90
62862;DHT22;48953;53.110;5.592;2022-07-23T08:38:10;23.10;99.90
62862;DHT22;48953;53.110;5.592;2022-07-23T08:40:38;23.20;99.90
62862;DHT22;48953;53.110;5.592;2022-07-23T08:43:06;23.40;99.90
62862;DHT22;48953;53.110;5.592;2022-07-23T08:45:36;23.60;99.90
62862;DHT22;48953;53.110;5.592;2022-07-23T08:48:03;23.60;99.90
62862;DHT22;48953;53.110;5.592;2022-07-23T08:50:28;23.90;99.90
62862;DHT22;48953;53.110;5.592;2022-07-23T08:52:54;23.80;99.90
62862;DHT22;48953;53.110;5.592;2022-07-23T08:55:22;23.80;99.90
62862;DHT22;48953;53.110;5.592;2022-07-23T08:57:51;23.80;99.90
62862;DHT22;48953;53.110;5.592;2022-07-23T09:00:19;23.50;99.90
62862;DHT22;48953;53.110;5.592;2022-07-23T09:02:46;23.30;99.90
62862;DHT22;48953;53.110;5.592;2022-07-23T09:05:13;22.90;99.90
62862;DHT22;48953;53.110;5.592;2022-07-23T09:10:30;22.90;99.90
62862;DHT22;48953;53.110;5.592;2022-07-23T09:12:59;22.80;99.90
62862;DHT22;48953;53.110;5.592;2022-07-23T09:15:25;22.70;99.90
62862;DHT22;48953;53.110;5.592;2022-07-23T09:17:51;22.70;99.90
62862;DHT22;48953;53.110;5.592;2022-07-23T09:20:17;23.40;99.90
62862;DHT22;48953;53.110;5.592;2022-07-23T09:22:47;23.70;99.90
62862;DHT22;48953;53.110;5.592;2022-07-23T09:25:15;24.10;99.90
62862;DHT22;48953;53.110;5.592;2022-07-23T09:27:52;24.00;99.90
62862;DHT22;48953;53.110;5.592;2022-07-23T09:30:22;23.70;99.90
62862;DHT22;48953;53.110;5.592;2022-07-23T09:35:54;24.90;99.90
62862;DHT22;48953;53.110;5.592;2022-07-23T09:38:23;26.20;99.90
62862;DHT22;48953;53.110;5.592;2022-07-23T09:41:10;26.80;99.90
62862;DHT22;48953;53.110;5.592;2022-07-23T09:43:37;26.60;99.90
62862;DHT22;48953;53.110;5.592;2022-07-23T09:46:25;26.80;99.90
62862;DHT22;48953;53.110;5.592;2022-07-23T09:48:54;26.50;99.90
62862;DHT22;48953;53.110;5.592;2022-07-23T09:51:23;26.10;99.90
62862;DHT22;48953;53.110;5.592;2022-07-23T09:53:58;26.00;99.90
62862;DHT22;48953;53.110;5.592;2022-07-23T09:56:23;26.90;99.90
62862;DHT22;48953;53.110;5.592;2022-07-23T09:58:51;26.70;99.90
62862;DHT22;48953;53.110;5.592;2022-07-23T10:01:27;28.00;99.90
62862;DHT22;48953;53.110;5.592;2022-07-23T10:03:53;27.70;99.90
62862;DHT22;48953;53.110;5.592;2022-07-23T10:06:18;26.60;99.90
62862;DHT22;48953;53.110;5.592;2022-07-23T10:08:46;27.60;99.90
62862;DHT22;48953;53.110;5.592;2022-07-23T10:11:13;28.20;99.90
62862;DHT22;48953;53.110;5.592;2022-07-23T10:13:40;28.10;99.90
62862;DHT22;48953;53.110;5.592;2022-07-23T10:16:23;31.80;99.90
62862;DHT22;48953;53.110;5.592;2022-07-23T10:18:49;30.50;99.90
62862;DHT22;48953;53.110;5.592;2022-07-23T10:21:38;33.50;99.90
62862;DHT22;48953;53.110;5.592;2022-07-23T10:26:58;38.30;99.90
62862;DHT22;48953;53.110;5.592;2022-07-23T10:29:35;36.40;99.90
62862;DHT22;48953;53.110;5.592;2022-07-23T10:32:04;36.10;99.90
62862;DHT22;48953;53.110;5.592;2022-07-23T10:34:44;35.00;99.90
62862;DHT22;48953;53.110;5.592;2022-07-23T10:39:42;32.90;99.90
62862;DHT22;48953;53.110;5.592;2022-07-23T10:42:12;34.60;99.90
62862;DHT22;48953;53.110;5.592;2022-07-23T10:44:48;32.60;99.90
62862;DHT22;48953;53.110;5.592;2022-07-23T10:47:28;33.20;99.90
62862;DHT22;48953;53.110;5.592;2022-07-23T10:50:27;35.80;99.90
62862;DHT22;48953;53.110;5.592;2022-07-23T10:57:57;38.80;99.90
62862;DHT22;48953;53.110;5.592;2022-07-23T11:00:24;39.40;99.90
62862;DHT22;48953;53.110;5.592;2022-07-23T11:02:53;34.60;99.90
62862;DHT22;48953;53.110;5.592;2022-07-23T11:05:43;32.00;99.90
62862;DHT22;48953;53.110;5.592;2022-07-23T11:26:49;29.00;99.90
62862;DHT22;48953;53.110;5.592;2022-07-23T11:31:53;29.10;99.90
62862;DHT22;48953;53.110;5.592;2022-07-23T11:37:05;29.00;99.90
62862;DHT22;48953;53.110;5.592;2022-07-23T11:39:32;28.60;99.90
62862;DHT22;48953;53.110;5.592;2022-07-23T11:41:58;29.00;99.90
62862;DHT22;48953;53.110;5.592;2022-07-23T11:44:26;28.90;99.90
62862;DHT22;48953;53.110;5.592;2022-07-23T11:46:59;28.70;99.90
62862;DHT22;48953;53.110;5.592;2022-07-23T11:49:25;28.90;99.90
62862;DHT22;48953;53.110;5.592;2022-07-23T11:52:11;29.00;99.90
62862;DHT22;48953;53.110;5.592;2022-07-23T11:54:49;28.70;99.90
62862;DHT22;48953;53.110;5.592;2022-07-23T11:57:15;29.00;99.90
62862;DHT22;48953;53.110;5.592;2022-07-23T11:59:42;28.50;99.90
62862;DHT22;48953;53.110;5.592;2022-07-23T12:02:08;27.90;99.90
62862;DHT22;48953;53.110;5.592;2022-07-23T12:04:46;27.90;99.90
62862;DHT22;48953;53.110;5.592;2022-07-23T12:09:50;27.50;99.90
62862;DHT22;48953;53.110;5.592;2022-07-23T12:12:16;27.90;99.90
62862;DHT22;48953;53.110;5.592;2022-07-23T12:14:58;27.80;99.90
62862;DHT22;48953;53.110;5.592;2022-07-23T12:17:32;28.20;99.90
62862;DHT22;48953;53.110;5.592;2022-07-23T12:19:59;28.40;99.90
62862;DHT22;48953;53.110;5.592;2022-07-23T12:22:36;28.60;99.90
62862;DHT22;48953;53.110;5.592;2022-07-23T12:27:30;28.40;99.90
62862;DHT22;48953;53.110;5.592;2022-07-23T12:29:56;28.50;99.90
62862;DHT22;48953;53.110;5.592;2022-07-23T12:32:24;28.70;99.90
62862;DHT22;48953;53.110;5.592;2022-07-23T12:35:10;28.70;99.90
62862;DHT22;48953;53.110;5.592;2022-07-23T12:37:41;28.10;99.90
62862;DHT22;48953;53.110;5.592;2022-07-23T12:42:55;27.90;99.90
62862;DHT22;48953;53.110;5.592;2022-07-23T12:45:21;27.60;99.90
62862;DHT22;48953;53.110;5.592;2022-07-23T12:48:05;27.60;99.90
62862;DHT22;48953;53.110;5.592;2022-07-23T12:50:42;28.00;99.90
62862;DHT22;48953;53.110;5.592;2022-07-23T12:53:17;27.90;99.90
62862;DHT22;48953;53.110;5.592;2022-07-23T12:55:44;28.00;99.90
62862;DHT22;48953;53.110;5.592;2022-07-23T12:58:15;27.50;99.90
62862;DHT22;48953;53.110;5.592;2022-07-23T13:00:57;27.40;99.90
62862;DHT22;48953;53.110;5.592;2022-07-23T13:03:28;27.40;99.90
62862;DHT22;48953;53.110;5.592;2022-07-23T13:05:54;27.90;99.90
62862;DHT22;48953;53.110;5.592;2022-07-23T13:08:21;27.50;99.90
62862;DHT22;48953;53.110;5.592;2022-07-23T13:10:47;27.00;99.90
62862;DHT22;48953;53.110;5.592;2022-07-23T13:13:15;27.30;99.90
62862;DHT22;48953;53.110;5.592;2022-07-23T13:15:42;27.10;99.90
62862;DHT22;48953;53.110;5.592;2022-07-23T13:18:07;27.20;99.90
62862;DHT22;48953;53.110;5.592;2022-07-23T13:20:33;26.90;99.90
62862;DHT22;48953;53.110;5.592;2022-07-23T13:23:00;26.80;99.90
62862;DHT22;48953;53.110;5.592;2022-07-23T13:25:26;26.90;99.90
62862;DHT22;48953;53.110;5.592;2022-07-23T13:27:52;26.90;99.90
62862;DHT22;48953;53.110;5.592;2022-07-23T13:30:18;26.90;99.90
62862;DHT22;48953;53.110;5.592;2022-07-23T13:32:43;26.80;99.90
62862;DHT22;48953;53.110;5.592;2022-07-23T13:35:09;26.70;99.90
62862;DHT22;48953;53.110;5.592;2022-07-23T13:37:35;25.90;99.90
62862;DHT22;48953;53.110;5.592;2022-07-23T13:40:01;25.50;99.90
62862;DHT22;48953;53.110;5.592;2022-07-23T13:42:26;25.80;99.90
62862;DHT22;48953;53.110;5.592;2022-07-23T13:44:52;25.80;99.90
62862;DHT22;48953;53.110;5.592;2022-07-23T13:47:18;26.20;99.90
62862;DHT22;48953;53.110;5.592;2022-07-23T13:49:43;26.10;99.90
62862;DHT22;48953;53.110;5.592;2022-07-23T13:52:09;26.00;99.90
62862;DHT22;48953;53.110;5.592;2022-07-23T13:54:35;26.20;99.90
62862;DHT22;48953;53.110;5.592;2022-07-23T13:57:01;26.20;99.90
62862;DHT22;48953;53.110;5.592;2022-07-23T13:59:26;26.00;99.90
62862;DHT22;48953;53.110;5.592;2022-07-23T14:01:52;26.10;99.90
62862;DHT22;48953;53.110;5.592;2022-07-23T14:04:18;26.10;99.90
62862;DHT22;48953;53.110;5.592;2022-07-23T14:06:44;26.20;99.90
62862;DHT22;48953;53.110;5.592;2022-07-23T14:09:09;26.10;99.90
62862;DHT22;48953;53.110;5.592;2022-07-23T14:11:35;26.10;99.90
62862;DHT22;48953;53.110;5.592;2022-07-23T14:14:00;26.30;99.90
62862;DHT22;48953;53.110;5.592;2022-07-23T14:16:26;26.20;99.90
62862;DHT22;48953;53.110;5.592;2022-07-23T14:18:52;26.30;99.90
62862;DHT22;48953;53.110;5.592;2022-07-23T14:21:17;26.40;99.90
62862;DHT22;48953;53.110;5.592;2022-07-23T14:23:43;25.70;99.90
62862;DHT22;48953;53.110;5.592;2022-07-23T14:26:08;25.80;99.90
62862;DHT22;48953;53.110;5.592;2022-07-23T14:28:34;25.80;99.90
62862;DHT22;48953;53.110;5.592;2022-07-23T14:31:00;25.90;99.90
62862;DHT22;48953;53.110;5.592;2022-07-23T14:33:25;25.50;99.90
62862;DHT22;48953;53.110;5.592;2022-07-23T14:35:51;25.70;99.90
62862;DHT22;48953;53.110;5.592;2022-07-23T14:38:17;25.20;99.90
62862;DHT22;48953;53.110;5.592;2022-07-23T14:40:42;25.70;99.90
62862;DHT22;48953;53.110;5.592;2022-07-23T14:43:08;25.60;99.90
62862;DHT22;48953;53.110;5.592;2022-07-23T14:45:34;25.70;99.90
62862;DHT22;48953;53.110;5.592;2022-07-23T14:48:00;25.90;99.90
62862;DHT22;48953;53.110;5.592;2022-07-23T14:50:27;25.90;99.90
62862;DHT22;48953;53.110;5.592;2022-07-23T14:52:53;25.70;99.90
62862;DHT22;48953;53.110;5.592;2022-07-23T14:55:18;25.80;99.90
62862;DHT22;48953;53.110;5.592;2022-07-23T14:57:44;25.60;99.90
62862;DHT22;48953;53.110;5.592;2022-07-23T15:00:10;25.60;99.90
62862;DHT22;48953;53.110;5.592;2022-07-23T15:02:36;25.50;99.90
62862;DHT22;48953;53.110;5.592;2022-07-23T15:05:02;25.40;99.90
62862;DHT22;48953;53.110;5.592;2022-07-23T15:07:29;25.10;99.90
62862;DHT22;48953;53.110;5.592;2022-07-23T15:09:56;25.20;99.90
62862;DHT22;48953;53.110;5.592;2022-07-23T15:12:21;25.30;99.90
62862;DHT22;48953;53.110;5.592;2022-07-23T15:14:47;25.20;99.90
62862;DHT22;48953;53.110;5.592;2022-07-23T15:17:13;25.20;99.90
62862;DHT22;48953;53.110;5.592;2022-07-23T15:19:38;25.30;99.90
62862;DHT22;48953;53.110;5.592;2022-07-23T15:22:04;25.00;99.90
62862;DHT22;48953;53.110;5.592;2022-07-23T15:24:30;25.10;99.90
62862;DHT22;48953;53.110;5.592;2022-07-23T15:26:56;25.20;99.90
62862;DHT22;48953;53.110;5.592;2022-07-23T15:29:22;24.90;99.90
62862;DHT22;48953;53.110;5.592;2022-07-23T15:31:48;24.80;99.90
62862;DHT22;48953;53.110;5.592;2022-07-23T15:34:14;24.90;99.90
62862;DHT22;48953;53.110;5.592;2022-07-23T15:36:39;24.80;99.90
62862;DHT22;48953;53.110;5.592;2022-07-23T15:39:05;25.00;99.90
62862;DHT22;48953;53.110;5.592;2022-07-23T15:41:31;25.10;99.90
62862;DHT22;48953;53.110;5.592;2022-07-23T15:43:56;24.70;99.90
62862;DHT22;48953;53.110;5.592;2022-07-23T15:46:22;24.60;99.90
62862;DHT22;48953;53.110;5.592;2022-07-23T15:48:49;24.70;99.90
62862;DHT22;48953;53.110;5.592;2022-07-23T15:51:15;24.60;99.90
62862;DHT22;48953;53.110;5.592;2022-07-23T15:53:41;24.90;99.90
62862;DHT22;48953;53.110;5.592;2022-07-23T15:56:08;24.60;99.90
62862;DHT22;48953;53.110;5.592;2022-07-23T15:58:34;24.60;99.90
62862;DHT22;48953;53.110;5.592;2022-07-23T16:01:00;24.40;99.90
62862;DHT22;48953;53.110;5.592;2022-07-23T16:03:32;24.30;99.90
62862;DHT22;48953;53.110;5.592;2022-07-23T16:05:57;24.20;99.90
62862;DHT22;48953;53.110;5.592;2022-07-23T16:08:23;24.10;99.90
62862;DHT22;48953;53.110;5.592;2022-07-23T16:10:49;23.90;99.90
62862;DHT22;48953;53.110;5.592;2022-07-23T16:13:14;23.90;99.90
62862;DHT22;48953;53.110;5.592;2022-07-23T16:15:41;23.70;99.90
62862;DHT22;48953;53.110;5.592;2022-07-23T16:18:07;23.70;99.90
62862;DHT22;48953;53.110;5.592;2022-07-23T16:20:35;23.70;99.90
62862;DHT22;48953;53.110;5.592;2022-07-23T16:23:00;23.70;99.90